Terminal Aerodrome Forecast
Issued by NWS

Home | Current Version | Previous Version | Graphics & Text | Print | Product List | Glossary On
Versions: 1 2 3 4 5 6 7 8 9 10 11 12 13
000
FTUS43 KMPX 232328
TAFRWF
TAF
KRWF 232328Z 2400/2424 VRB03KT P6SM FEW250
     FM241200 VRB03KT P6SM BKN110
     FM241400 01007KT P6SM BKN090
     FM241600 02012G17KT P6SM BKN070
     FM242000 01012G17KT P6SM SCT090
      AMD NOT SKED=

USA.gov is the U.S. government's official web portal to all federal, state and local government web resources and services.